Terminal Aerodrome Forecast
Issued by NWS

Home | Current Version | Previous Version | Text Only | Print | Product List | Glossary On
Versions: 1 2 3 4 5 6 7 8 9 10 11 12 13 14 15 16 17 18 19 20 21 22 23 24 25 26 27 28 29 30 31 32 33 34 35 36 37 38 39 40 41 42 43 44 45 46 47 48 49 50
000
FTUS41 KBOX 230534
TAFFMH
TAF
KFMH 230534Z 2306/2406 02006KT P6SM VCSH OVC008
     FM231300 04007KT 4SM SHRA OVC008
      TEMPO 2313/2316 2SM TSRA OVC007CB
     FM231800 36012G20KT 3SM BR VCSH OVC008
     FM232100 36009KT P6SM VCSH OVC008
     FM240500 03003KT P6SM VCSH OVC015=

USA.gov is the U.S. government's official web portal to all federal, state and local government web resources and services.